Bearsdale, Illinois
Current Conditions -  °F | °C
As of 5:54 PM on Thursday 27 Nov 2014 (Local Time) from KDEC Reporting Station
Clear Clear  
Wind Chill:   Ceiling: Unl
Heat Index: 20°   Visibility: 10mi
Dew Point: 13°   Wind: 9mph
Humidity: 74%   Direction: 300°WNW
Pressure: 30.46"   Gusts: NA
Location:  39.9062°N, 88.9645°W
Report Text: KDEC 272354Z 30008KT 10SM CLR M07/M11 A3046 RMK AO2 SLP325 60000 T10671106 11017 21067 51010
Loading
Personal Weather Stations






























Interactive Weather Map New forecast layout! Learn more

10-Day Weather Forecast

Advertisements
Track Severe Weather on mobile